Airfield :
LOGIN :

Register | Disclaimer

   EN    FR    IT 

 










Legend :    VFR   Marginal VFR   IFR   Intensive IFR   Very Intensive IFR
Visi :
Ceiling :
>= 8 km
>= 3000ft
5 to 8 km
1000 to 3000 ft
1500m to 5 km
500 to 1000 ft
800 to 1500m
200 to 500 ft
< 800m
< 200 ft
Symbols :   Thunderstorms  Fog  Heavy snow  Heavy precipitations  Wind > 20 kt
SIGMETs :     Misc.  Thunderstorms  Icing  Turbulence  Mountain Waves  Volcanic Ashes






- Airport Elevation : 313 ft


LFQA - Reims-Prunay

CURRENT METAR :
  • 281100Z AUTO 24005KT 220V280 9999 OVC005/// ///TCU 09/08 Q1012

EXPIRED METARs :
  • 281030Z AUTO 00000KT 9999 OVC007 09/08 Q1012
  • 281000Z AUTO 20003KT 5000 -RA BR FEW004 BKN009 OVC013 09/08 Q1012
  • 280930Z AUTO 21004KT 170V230 9999 OVC010 09/08 Q1011
  • 280900Z AUTO 20003KT 6000 -RA OVC007 08/08 Q1011
  • 280830Z AUTO 20003KT 9999 OVC006/// ///TCU 08/08 Q1011

TAF N/A



MET'MAP, your aeronautical weather chart ! - Copyright ORBIFLY December 2007 - Disclaimer

ORBIFLY MET'MAP TEAM :

Programming & Development : Alexandra Zaïnal
Original concept : Baudouin d'Aumeries
Technical & hardware support : Manuel Goepfert
Assistance : Marc-Olivier Méhu




SOURCES & CREDITS :

   NOAA